Time;durP1;ratioP1;P1;durP2;ratioP2;P2;SDS_P1;SDS_P2;PMS_P1;PMS_P2;Temp;Humidity;BMP_temperature;BMP_pressure;BME280_temperature;BME280_humidity;BME280_pressure;Samples;Min_cycle;Max_cycle;Signal;HPM_P1;HPM_P2
2024/01/05 00:02:24;;;;;;;5.80;5.30;;;2.00;1.00;;;;;;4979369;28;20303;-89
2024/01/05 00:05:23;;;;;;;7.10;6.40;;;2.30;1.00;;;;;;4968550;28;20257;-89
2024/01/05 00:16:52;;;;;;;5.18;4.65;;;1.90;1.00;;;;;;4960436;28;20257;-89
2024/01/05 00:19:24;;;;;;;6.15;4.95;;;1.90;1.00;;;;;;4961778;29;20236;-89
2024/01/05 00:22:18;;;;;;;5.25;4.75;;;2.40;1.00;;;;;;4961300;29;20207;-89
2024/01/05 00:25:08;;;;;;;6.88;5.13;;;1.90;1.00;;;;;;4960643;28;20242;-89
2024/01/05 00:27:52;;;;;;;5.60;5.10;;;1.90;1.00;;;;;;4961437;29;20216;-88
2024/01/05 00:36:28;;;;;;;;;;;;;;;;;;;;;
2024/01/05 00:39:05;;;;;;;8.50;6.18;;;1.80;1.00;;;;;;4960364;28;20210;-89
2024/01/05 00:41:56;;;;;;;7.18;5.10;;;1.80;1.00;;;;;;4961587;29;20205;-89
2024/01/05 00:44:39;;;;;;;6.47;5.88;;;1.90;1.00;;;;;;4961795;28;20305;-88
2024/01/05 00:47:32;;;;;;;10.57;5.97;;;1.90;1.00;;;;;;4960971;29;20218;-89
2024/01/05 00:50:30;;;;;;;7.53;4.80;;;1.90;1.00;;;;;;4955111;28;20293;-89
2024/01/05 01:24:39;;;;;;;;;;;;;;;;;;;;;
2024/01/05 01:30:28;;;;;;;8.25;5.25;;;1.80;1.00;;;;;;6246187;22;20165;-90
2024/01/05 01:33:09;;;;;;;5.45;4.80;;;1.80;1.00;;;;;;6215865;22;20178;-88
2024/01/05 01:44:55;;;;;;;4.40;3.90;;;2.00;1.00;;;;;;6263141;22;20197;-88
2024/01/05 01:47:28;;;;;;;3.55;3.25;;;1.90;1.00;;;;;;6277253;23;20157;-88
2024/01/05 01:50:00;;;;;;;7.15;4.43;;;1.90;99.90;;;;;;6194830;23;20478;-88
2024/01/05 01:52:29;;;;;;;4.75;4.35;;;1.90;99.90;;;;;;6193231;23;20191;-89
2024/01/05 01:55:27;;;;;;;6.88;4.60;;;1.90;99.90;;;;;;6192287;23;20202;-88
2024/01/05 01:58:08;;;;;;;8.60;3.78;;;2.20;1.00;;;;;;6199164;22;20179;-89
2024/01/05 02:01:09;;;;;;;8.98;4.85;;;2.00;99.90;;;;;;6202133;23;20254;-88
2024/01/05 02:03:54;;;;;;;8.07;5.30;;;2.00;99.90;;;;;;6274373;22;20174;-90
2024/01/05 02:06:21;;;;;;;5.53;4.97;;;2.00;1.00;;;;;;6277432;22;20173;-88
2024/01/05 02:33:57;;;;;;;5.10;4.40;;;1.80;1.00;;;;;;5519237;22;18615006;-88
2024/01/05 02:36:52;;;;;;;5.22;4.72;;;1.90;1.00;;;;;;6290505;22;20169;-89
2024/01/05 02:39:43;;;;;;;4.22;3.83;;;1.90;1.00;;;;;;6295553;22;20211;-91
2024/01/05 02:45:08;;;;;;;5.38;4.20;;;1.80;1.00;;;;;;6301377;22;20193;-91
2024/01/05 02:47:37;;;;;;;5.72;4.85;;;1.80;1.00;;;;;;6289976;22;20183;-90
2024/01/05 02:50:10;;;;;;;9.75;4.93;;;1.80;1.00;;;;;;6289501;22;20225;-90
2024/01/05 02:52:40;;;;;;;4.60;4.20;;;1.80;1.00;;;;;;6290805;22;20209;-89
2024/01/05 02:55:11;;;;;;;5.20;4.70;;;1.90;1.00;;;;;;6290970;22;20196;-89
2024/01/05 02:57:43;;;;;;;5.30;4.53;;;1.90;1.00;;;;;;6306188;22;20165;-89
2024/01/05 03:00:15;;;;;;;4.88;4.50;;;1.90;1.00;;;;;;6295711;22;20162;-89
2024/01/05 03:02:48;;;;;;;8.00;5.15;;;1.90;1.00;;;;;;6312663;22;20216;-89
2024/01/05 03:05:41;;;;;;;5.30;4.03;;;2.10;1.00;;;;;;6313172;22;20188;-90
2024/01/05 03:08:11;;;;;;;6.68;3.75;;;2.20;1.00;;;;;;6295822;22;20177;-89
2024/01/05 03:10:42;;;;;;;4.45;4.05;;;1.70;1.00;;;;;;6291403;22;20176;-89
2024/01/05 03:15:57;;;;;;;8.98;6.82;;;1.70;1.00;;;;;;6287749;22;20173;-89
2024/01/05 03:18:42;;;;;;;4.63;4.20;;;2.00;1.00;;;;;;6289342;22;20177;-89
2024/01/05 03:21:14;;;;;;;8.30;3.20;;;1.70;1.00;;;;;;6289130;22;20173;-89
2024/01/05 03:23:47;;;;;;;3.80;3.50;;;1.60;1.00;;;;;;6289098;22;20197;-89
2024/01/05 03:26:20;;;;;;;4.00;3.53;;;1.60;1.00;;;;;;6288625;22;20173;-89
2024/01/05 03:28:48;;;;;;;4.65;3.72;;;1.90;1.00;;;;;;6289553;22;20154;-89
2024/01/05 03:31:22;;;;;;;4.10;3.80;;;1.70;1.00;;;;;;6289302;22;20493;-90
2024/01/05 03:33:52;;;;;;;4.25;3.95;;;2.20;1.00;;;;;;6303775;22;20249;-89
2024/01/05 03:36:47;;;;;;;4.35;3.95;;;1.60;1.00;;;;;;6302057;22;20197;-89
2024/01/05 03:39:14;;;;;;;4.75;3.95;;;1.60;1.00;;;;;;6282523;22;20177;-89
2024/01/05 03:41:47;;;;;;;4.82;3.65;;;1.50;1.00;;;;;;6280900;22;20190;-89
2024/01/05 03:44:20;;;;;;;4.75;4.35;;;1.50;1.00;;;;;;6280355;22;20205;-89
2024/01/05 03:46:53;;;;;;;5.47;4.30;;;1.50;1.00;;;;;;6280710;22;20169;-89
2024/01/05 03:49:24;;;;;;;3.90;3.50;;;1.50;66.10;;;;;;6282757;22;20166;-88
2024/01/05 03:52:34;;;;;;;4.20;3.67;;;1.60;47.70;;;;;;6297201;22;20188;-88
2024/01/05 03:55:30;;;;;;;5.50;3.85;;;1.40;1.00;;;;;;6288301;22;20671;-88
2024/01/05 03:57:57;;;;;;;5.45;3.70;;;1.50;99.90;;;;;;6281223;22;20185;-89
2024/01/05 04:00:33;;;;;;;5.70;4.10;;;1.50;99.90;;;;;;6281338;22;20516;-89
2024/01/05 04:03:00;;;;;;;5.60;5.00;;;1.60;99.90;;;;;;6280606;22;20181;-89
2024/01/05 04:05:33;;;;;;;8.32;4.32;;;2.00;99.90;;;;;;6280496;22;20194;-89
2024/01/05 04:08:08;;;;;;;4.72;4.22;;;2.40;99.90;;;;;;6280005;22;20562;-89
2024/01/05 04:10:56;;;;;;;7.00;5.43;;;1.60;99.90;;;;;;6282794;22;20200;-89
2024/01/05 04:13:57;;;;;;;5.72;4.65;;;1.60;99.90;;;;;;6295735;22;20157;-90
2024/01/05 04:19:56;;;;;;;6.05;4.70;;;1.60;99.90;;;;;;6299896;22;20177;-89
2024/01/05 04:22:30;;;;;;;4.60;4.20;;;1.60;99.90;;;;;;6283908;22;20185;-89
2024/01/05 04:35:00;;;;;;;4.05;3.78;;;1.60;99.90;;;;;;6303726;22;20288;-90
2024/01/05 04:37:45;;;;;;;7.10;5.20;;;1.60;99.90;;;;;;6304688;22;20158;-90
2024/01/05 04:40:22;;;;;;;5.47;4.95;;;1.40;99.90;;;;;;6304856;22;20213;-89
2024/01/05 04:42:55;;;;;;;7.05;4.95;;;1.50;99.90;;;;;;6305290;22;20182;-89
2024/01/05 04:45:38;;;;;;;7.90;5.13;;;1.70;99.90;;;;;;6302700;22;20182;-89
2024/01/05 04:48:14;;;;;;;5.65;5.00;;;1.40;99.90;;;;;;6305560;22;20169;-90
2024/01/05 04:50:44;;;;;;;6.88;5.30;;;1.40;99.90;;;;;;6305153;22;20170;-90
2024/01/05 04:53:11;;;;;;;6.85;5.47;;;1.50;99.90;;;;;;6305066;22;20150;-90
2024/01/05 04:55:39;;;;;;;12.98;4.53;;;1.70;99.90;;;;;;6304459;22;20177;-89
2024/01/05 04:58:06;;;;;;;6.72;5.32;;;1.50;99.90;;;;;;6304798;22;20197;-89
2024/01/05 05:00:36;;;;;;;5.25;4.40;;;1.40;99.90;;;;;;6304985;22;20161;-89
2024/01/05 05:03:09;;;;;;;6.45;5.53;;;1.50;99.90;;;;;;6305226;22;20174;-89
2024/01/05 05:05:36;;;;;;;6.05;5.15;;;1.50;99.90;;;;;;6286220;22;20350;-81
2024/01/05 05:08:04;;;;;;;8.35;5.70;;;1.50;99.90;;;;;;6199411;23;20199;-81
2024/01/05 05:10:30;;;;;;;8.27;5.40;;;1.60;99.90;;;;;;6196142;23;20254;-81
2024/01/05 05:12:57;;;;;;;6.00;5.22;;;1.60;99.90;;;;;;6194729;23;20183;-82
2024/01/05 05:15:24;;;;;;;6.85;4.70;;;1.50;99.90;;;;;;6193452;23;20199;-81
2024/01/05 05:17:53;;;;;;;6.80;5.00;;;1.30;99.90;;;;;;6192651;23;20192;-81
2024/01/05 05:20:21;;;;;;;7.30;5.43;;;1.30;99.90;;;;;;6192871;23;20176;-81
2024/01/05 05:22:48;;;;;;;6.18;5.57;;;1.30;99.90;;;;;;6192520;23;20230;-82
2024/01/05 05:25:14;;;;;;;7.68;5.68;;;1.30;99.90;;;;;;6192869;23;20501;-81
2024/01/05 05:27:41;;;;;;;5.03;4.40;;;1.20;99.90;;;;;;6192667;23;20214;-82
2024/01/05 05:30:09;;;;;;;8.30;4.45;;;1.30;99.90;;;;;;6191759;23;20686;-81
2024/01/05 05:32:36;;;;;;;8.65;5.50;;;1.30;99.90;;;;;;6192517;23;20232;-81
2024/01/05 05:35:04;;;;;;;7.50;4.65;;;1.40;99.90;;;;;;6192686;23;20251;-80
2024/01/05 05:37:32;;;;;;;6.10;4.70;;;1.30;99.90;;;;;;6192156;23;20210;-81
2024/01/05 05:39:59;;;;;;;5.85;4.20;;;1.20;99.90;;;;;;6197154;23;20218;-81
2024/01/05 05:42:26;;;;;;;4.90;4.50;;;1.30;99.90;;;;;;6196069;23;20278;-81
2024/01/05 05:44:54;;;;;;;5.10;4.30;;;1.40;99.90;;;;;;6195313;23;20180;-82
2024/01/05 05:47:21;;;;;;;5.85;4.47;;;1.30;99.90;;;;;;6194314;23;20203;-82
2024/01/05 05:49:48;;;;;;;4.00;3.70;;;1.30;99.90;;;;;;6198201;23;20199;-82
2024/01/05 05:52:15;;;;;;;5.18;4.57;;;1.20;99.90;;;;;;6193003;23;20176;-82
2024/01/05 05:54:44;;;;;;;6.72;4.55;;;1.20;99.90;;;;;;6193985;23;20180;-82
2024/01/05 05:57:12;;;;;;;4.80;3.92;;;1.30;99.90;;;;;;6198229;23;20227;-81
2024/01/05 05:59:39;;;;;;;4.88;4.25;;;1.30;99.90;;;;;;6206094;23;20281;-81
2024/01/05 06:02:05;;;;;;;6.63;4.10;;;1.20;99.90;;;;;;6206382;23;20180;-82
2024/01/05 06:04:32;;;;;;;3.78;3.47;;;1.20;99.90;;;;;;6207122;23;20179;-82
2024/01/05 06:06:59;;;;;;;5.43;4.32;;;1.20;99.90;;;;;;6227915;23;20207;-81
2024/01/05 06:09:26;;;;;;;4.57;4.15;;;1.20;99.90;;;;;;6235791;23;20186;-82
2024/01/05 06:11:55;;;;;;;5.05;4.50;;;1.20;99.90;;;;;;6242402;22;20163;-81
2024/01/05 06:14:22;;;;;;;12.30;4.35;;;1.30;99.90;;;;;;6239490;23;20156;-81
2024/01/05 06:16:49;;;;;;;7.45;4.35;;;1.30;99.90;;;;;;6240095;23;20205;-81
2024/01/05 06:19:15;;;;;;;6.97;4.43;;;1.30;99.90;;;;;;6231524;23;20175;-81
2024/01/05 06:21:42;;;;;;;4.68;4.30;;;1.30;99.90;;;;;;6225020;23;20497;-81
2024/01/05 06:24:11;;;;;;;4.38;3.70;;;1.40;99.90;;;;;;6223865;23;20202;-82
2024/01/05 06:26:37;;;;;;;5.63;5.00;;;1.30;99.90;;;;;;6224283;23;20195;-82
2024/01/05 06:29:07;;;;;;;5.55;4.65;;;1.30;99.90;;;;;;6223268;23;20209;-81
2024/01/05 06:31:34;;;;;;;13.18;5.50;;;1.40;99.90;;;;;;6222658;23;20194;-81
2024/01/05 06:34:01;;;;;;;5.45;4.43;;;1.40;99.90;;;;;;6222453;23;20210;-81
2024/01/05 06:36:28;;;;;;;4.50;4.10;;;1.40;99.90;;;;;;6223042;23;20203;-83
2024/01/05 06:38:54;;;;;;;5.60;4.57;;;1.30;99.90;;;;;;6223117;23;20702;-83
2024/01/05 06:41:21;;;;;;;4.70;4.30;;;1.20;99.90;;;;;;6227346;23;20660;-82
2024/01/05 06:43:48;;;;;;;6.25;4.72;;;1.20;1.00;;;;;;6236761;23;20178;-82
2024/01/05 06:46:17;;;;;;;6.88;4.45;;;1.20;1.00;;;;;;6230997;23;20202;-81
2024/01/05 06:48:44;;;;;;;5.70;4.50;;;1.20;1.00;;;;;;6224659;23;20179;-81
2024/01/05 06:51:11;;;;;;;4.97;4.22;;;1.20;1.00;;;;;;6223073;23;20179;-81
2024/01/05 06:53:37;;;;;;;6.70;5.32;;;1.10;1.00;;;;;;6223539;23;20211;-83
2024/01/05 06:56:06;;;;;;;4.22;3.83;;;1.10;1.00;;;;;;6224929;23;20247;-82
2024/01/05 06:58:34;;;;;;;6.60;4.57;;;1.00;1.00;;;;;;6235745;23;20175;-82
2024/01/05 07:01:01;;;;;;;6.10;4.60;;;1.00;1.00;;;;;;6234657;23;20185;-82
2024/01/05 07:03:29;;;;;;;7.13;4.63;;;1.00;1.00;;;;;;6237118;23;20198;-81
2024/01/05 07:05:56;;;;;;;5.90;5.28;;;1.00;19.40;;;;;;6236383;23;20217;-82
2024/01/05 07:08:22;;;;;;;6.32;4.70;;;1.00;19.30;;;;;;6236251;23;20179;-81
2024/01/05 07:10:49;;;;;;;5.60;5.05;;;0.90;56.30;;;;;;6237249;23;20258;-81
2024/01/05 07:13:16;;;;;;;10.57;6.18;;;0.90;99.90;;;;;;6238257;23;20182;-82
2024/01/05 07:15:43;;;;;;;7.05;5.60;;;0.90;99.90;;;;;;6234877;23;20254;-82
2024/01/05 07:18:10;;;;;;;6.55;5.50;;;0.80;99.90;;;;;;6224744;23;20200;-82
2024/01/05 07:20:38;;;;;;;8.18;6.60;;;0.80;99.90;;;;;;6225511;23;20258;-82
2024/01/05 07:23:05;;;;;;;7.88;5.75;;;0.80;99.90;;;;;;6232800;22;20206;-82
2024/01/05 07:25:32;;;;;;;9.48;6.28;;;0.80;99.90;;;;;;6225609;23;20210;-80
2024/01/05 07:27:59;;;;;;;8.43;6.55;;;0.80;99.90;;;;;;6227023;23;20203;-82
2024/01/05 07:30:25;;;;;;;10.75;6.22;;;0.80;99.90;;;;;;6227106;23;20490;-81
2024/01/05 07:32:52;;;;;;;10.55;6.57;;;0.80;99.90;;;;;;6225820;23;20286;-82
2024/01/05 07:35:19;;;;;;;9.63;6.50;;;0.80;99.90;;;;;;6223569;23;20213;-82
2024/01/05 07:37:47;;;;;;;8.23;7.30;;;0.70;99.90;;;;;;6224048;23;20254;-81
2024/01/05 07:40:14;;;;;;;9.05;7.97;;;0.80;99.90;;;;;;6233340;23;20179;-80
2024/01/05 07:42:41;;;;;;;10.85;6.32;;;0.70;99.90;;;;;;6239740;23;20207;-81
2024/01/05 07:45:11;;;;;;;9.77;7.90;;;0.80;99.90;;;;;;6238836;23;20179;-81
2024/01/05 07:47:37;;;;;;;10.95;7.45;;;0.70;99.90;;;;;;6229464;23;20394;-81
2024/01/05 07:50:07;;;;;;;9.05;6.80;;;0.70;99.90;;;;;;6224169;23;20566;-82
2024/01/05 07:52:35;;;;;;;12.95;7.07;;;0.70;99.90;;;;;;6226684;23;20179;-82
2024/01/05 07:55:03;;;;;;;8.55;7.00;;;0.70;99.90;;;;;;6226997;23;20175;-83
2024/01/05 07:57:30;;;;;;;8.23;6.13;;;0.70;99.90;;;;;;6229475;23;20175;-84
2024/01/05 07:59:57;;;;;;;8.45;6.70;;;0.70;99.90;;;;;;6225648;23;20576;-83
2024/01/05 08:02:24;;;;;;;11.13;7.20;;;0.70;99.90;;;;;;6223972;23;20186;-82
2024/01/05 08:04:51;;;;;;;10.90;6.80;;;0.70;99.90;;;;;;6223932;23;20195;-82
2024/01/05 08:07:18;;;;;;;9.10;6.45;;;0.80;99.90;;;;;;6234108;23;20615;-81
2024/01/05 08:09:45;;;;;;;13.10;8.32;;;0.80;99.90;;;;;;6242584;23;20267;-81
2024/01/05 08:12:13;;;;;;;10.13;7.32;;;0.90;99.90;;;;;;6224540;23;20239;-81
2024/01/05 08:14:40;;;;;;;12.30;7.93;;;0.80;99.90;;;;;;6224009;23;20246;-80
2024/01/05 08:17:06;;;;;;;7.57;6.30;;;0.80;99.90;;;;;;6222993;23;20287;-81
2024/01/05 08:19:33;;;;;;;9.35;6.05;;;0.80;99.90;;;;;;6223389;23;20580;-82
2024/01/05 08:22:00;;;;;;;10.70;6.43;;;0.80;99.90;;;;;;6224342;23;20567;-82
2024/01/05 08:24:27;;;;;;;8.63;5.70;;;0.80;99.90;;;;;;6223984;23;20302;-82
2024/01/05 08:26:54;;;;;;;7.28;5.93;;;0.90;99.90;;;;;;6225543;23;20199;-82
2024/01/05 08:29:22;;;;;;;9.48;6.35;;;0.80;99.90;;;;;;6223863;23;20179;-82
2024/01/05 08:31:50;;;;;;;7.50;6.03;;;0.80;99.90;;;;;;6223316;23;20202;-81
2024/01/05 08:34:17;;;;;;;8.23;6.05;;;0.90;99.90;;;;;;6223688;23;20233;-81
2024/01/05 08:36:45;;;;;;;9.95;6.95;;;0.90;99.90;;;;;;6223741;23;20199;-83
2024/01/05 08:39:12;;;;;;;9.27;6.47;;;0.80;99.90;;;;;;6231515;23;20190;-83
2024/01/05 08:41:42;;;;;;;10.45;6.25;;;0.80;99.90;;;;;;6235954;23;20179;-83
2024/01/05 08:44:09;;;;;;;12.18;6.28;;;0.80;99.90;;;;;;6237784;23;20202;-83
2024/01/05 08:46:38;;;;;;;6.68;5.03;;;0.80;99.90;;;;;;6231423;23;20199;-83
2024/01/05 08:49:05;;;;;;;8.27;6.25;;;0.70;99.90;;;;;;6226161;23;20284;-82
2024/01/05 08:51:32;;;;;;;6.53;5.60;;;0.70;99.90;;;;;;6225546;23;20181;-83
2024/01/05 08:54:01;;;;;;;10.23;5.85;;;0.70;99.90;;;;;;6238713;23;20238;-83
2024/01/05 08:56:28;;;;;;;5.68;5.18;;;0.70;99.90;;;;;;6242406;22;20199;-82
2024/01/05 08:58:55;;;;;;;6.93;5.63;;;0.80;99.90;;;;;;6233168;23;20233;-83
2024/01/05 09:01:22;;;;;;;7.60;5.22;;;0.80;99.90;;;;;;6228030;23;20179;-83
2024/01/05 09:03:50;;;;;;;6.63;4.90;;;0.80;99.90;;;;;;6225368;23;20205;-83
2024/01/05 09:06:17;;;;;;;10.13;5.63;;;0.80;99.90;;;;;;6225677;23;20207;-83
2024/01/05 09:08:44;;;;;;;6.78;6.03;;;0.70;99.90;;;;;;6241183;23;20159;-82
2024/01/05 09:11:11;;;;;;;5.70;5.03;;;0.70;99.90;;;;;;6238483;23;20186;-82
2024/01/05 09:13:38;;;;;;;7.22;5.60;;;0.80;99.90;;;;;;6242267;22;20168;-80
2024/01/05 09:16:05;;;;;;;8.57;6.07;;;0.80;99.90;;;;;;6243385;22;20186;-81
2024/01/05 09:18:33;;;;;;;8.15;6.03;;;0.80;99.90;;;;;;6244180;22;20159;-82
2024/01/05 09:21:02;;;;;;;5.95;4.70;;;0.80;99.90;;;;;;6237111;22;20171;-82
2024/01/05 09:23:29;;;;;;;6.30;5.60;;;0.80;99.90;;;;;;6226649;23;20708;-83
2024/01/05 09:25:56;;;;;;;5.75;5.20;;;0.80;99.90;;;;;;6226955;23;20282;-83
2024/01/05 09:28:22;;;;;;;6.20;5.47;;;0.80;99.90;;;;;;6227384;23;20175;-82
2024/01/05 09:30:49;;;;;;;7.63;5.53;;;0.70;99.90;;;;;;6220345;23;20211;-82
2024/01/05 09:33:17;;;;;;;7.65;5.53;;;0.80;99.90;;;;;;6225621;23;20203;-82
2024/01/05 09:35:46;;;;;;;4.97;4.53;;;0.70;99.90;;;;;;6228734;23;20199;-81
2024/01/05 09:38:14;;;;;;;5.78;5.28;;;0.80;99.90;;;;;;6225734;23;20202;-81
2024/01/05 09:40:41;;;;;;;5.90;5.30;;;0.80;99.90;;;;;;6225021;23;20250;-81
2024/01/05 09:43:08;;;;;;;5.65;4.72;;;0.80;99.90;;;;;;6237443;23;20190;-81
2024/01/05 09:45:36;;;;;;;5.95;5.43;;;0.90;99.90;;;;;;6239665;23;20182;-81
2024/01/05 09:48:05;;;;;;;7.00;4.97;;;0.90;99.90;;;;;;6224980;23;20258;-82
2024/01/05 09:50:32;;;;;;;6.57;5.35;;;1.00;99.90;;;;;;6230846;23;20183;-80
2024/01/05 09:52:59;;;;;;;4.85;4.45;;;0.90;99.90;;;;;;6230585;23;20167;-82
2024/01/05 09:55:27;;;;;;;6.80;5.80;;;1.00;99.90;;;;;;6222730;23;20219;-82
2024/01/05 09:57:55;;;;;;;5.55;4.88;;;0.90;99.90;;;;;;6231734;23;20202;-81
2024/01/05 10:00:26;;;;;;;5.93;5.32;;;1.00;99.90;;;;;;6231249;23;20210;-81
2024/01/05 10:02:57;;;;;;;8.25;6.47;;;1.00;99.90;;;;;;6241699;23;20165;-81
2024/01/05 10:05:25;;;;;;;9.10;6.85;;;1.00;99.90;;;;;;6243172;22;20209;-81
2024/01/05 10:07:52;;;;;;;6.93;5.65;;;1.00;99.90;;;;;;6241866;22;20147;-81
2024/01/05 10:10:19;;;;;;;7.20;6.20;;;0.90;99.90;;;;;;6222624;23;20222;-82
2024/01/05 10:12:47;;;;;;;6.60;5.68;;;1.00;99.90;;;;;;6229006;23;20198;-82
2024/01/05 10:15:14;;;;;;;6.55;5.93;;;1.00;99.90;;;;;;6225419;23;20251;-82
2024/01/05 10:17:41;;;;;;;12.63;5.95;;;0.90;99.90;;;;;;6227919;23;20175;-82
2024/01/05 10:20:12;;;;;;;9.25;5.30;;;0.90;99.90;;;;;;6231036;23;20205;-82
2024/01/05 10:22:39;;;;;;;5.43;4.90;;;0.90;99.90;;;;;;6228638;23;20234;-82
2024/01/05 10:25:17;;;;;;;7.60;6.22;;;0.90;99.90;;;;;;6226785;23;20205;-81
2024/01/05 10:27:44;;;;;;;6.18;5.07;;;1.00;99.90;;;;;;6225408;23;20221;-82
2024/01/05 10:30:25;;;;;;;7.22;4.57;;;1.00;99.90;;;;;;6222702;23;20257;-82
2024/01/05 10:33:04;;;;;;;6.50;5.90;;;1.00;99.90;;;;;;6222655;23;20610;-82
2024/01/05 10:35:31;;;;;;;4.85;4.25;;;1.00;99.90;;;;;;6222878;23;20195;-81
2024/01/05 10:38:06;;;;;;;5.25;4.75;;;0.90;99.90;;;;;;6222940;23;20179;-82
2024/01/05 10:40:33;;;;;;;4.30;4.00;;;0.90;99.90;;;;;;6222805;23;20179;-82
2024/01/05 10:43:11;;;;;;;4.97;4.57;;;1.00;99.90;;;;;;6224953;23;20223;-82
2024/01/05 10:45:41;;;;;;;5.20;4.70;;;1.00;99.90;;;;;;6225166;23;20198;-82
2024/01/05 10:48:09;;;;;;;5.88;5.38;;;0.90;99.90;;;;;;6225613;23;20258;-81
2024/01/05 10:50:37;;;;;;;5.88;4.82;;;1.00;99.90;;;;;;6225255;23;20183;-82
2024/01/05 10:53:08;;;;;;;5.43;4.93;;;1.00;99.90;;;;;;6226911;23;20216;-82
2024/01/05 10:55:37;;;;;;;5.65;5.03;;;1.00;99.90;;;;;;6226558;23;20201;-81
2024/01/05 10:58:06;;;;;;;4.95;4.50;;;1.00;99.90;;;;;;6224836;23;20210;-82
2024/01/05 11:00:33;;;;;;;5.07;4.68;;;1.00;99.90;;;;;;6224514;23;20179;-82
2024/01/05 11:03:09;;;;;;;6.03;4.80;;;0.90;99.90;;;;;;6224241;23;20235;-83
2024/01/05 11:05:39;;;;;;;5.47;4.93;;;0.90;99.90;;;;;;6224472;23;20604;-82
2024/01/05 11:08:06;;;;;;;5.55;5.05;;;1.00;99.90;;;;;;6224060;23;20164;-81
2024/01/05 11:10:44;;;;;;;8.90;5.00;;;1.00;99.90;;;;;;6224770;23;20174;-81
2024/01/05 11:13:21;;;;;;;9.48;6.40;;;1.00;99.90;;;;;;6224612;23;20617;-83
2024/01/05 11:16:03;;;;;;;5.60;5.07;;;1.00;99.90;;;;;;6224143;23;20265;-81
2024/01/05 11:18:50;;;;;;;7.78;5.50;;;1.00;99.90;;;;;;6225182;23;20164;-81
2024/01/05 11:21:20;;;;;;;5.63;4.85;;;1.10;99.90;;;;;;6223859;23;20182;-82
2024/01/05 11:23:49;;;;;;;4.88;4.47;;;1.00;99.90;;;;;;6229760;23;20164;-81
2024/01/05 11:26:34;;;;;;;9.18;4.32;;;1.00;99.90;;;;;;6227853;23;20199;-81
2024/01/05 11:29:02;;;;;;;4.45;4.10;;;1.00;99.90;;;;;;6229054;23;20179;-82
2024/01/05 11:31:52;;;;;;;6.65;4.60;;;1.00;99.90;;;;;;6222782;23;20187;-82
2024/01/05 11:34:34;;;;;;;5.65;4.97;;;1.00;99.90;;;;;;6224051;23;20214;-81
2024/01/05 11:37:01;;;;;;;4.68;4.13;;;1.00;99.90;;;;;;6225581;23;20218;-81
2024/01/05 11:39:47;;;;;;;5.13;4.63;;;1.00;1.00;;;;;;6222351;23;20179;-82
2024/01/05 11:42:33;;;;;;;5.30;4.80;;;1.00;1.00;;;;;;6223802;23;20213;-82
2024/01/05 11:45:03;;;;;;;9.10;6.85;;;0.90;1.00;;;;;;6223664;23;20182;-82
2024/01/05 11:47:40;;;;;;;6.80;5.10;;;1.00;1.00;;;;;;6223656;23;20166;-82
2024/01/05 11:50:30;;;;;;;7.22;5.35;;;1.00;1.00;;;;;;6223184;23;20179;-82
2024/01/05 11:53:11;;;;;;;7.32;6.00;;;1.00;1.00;;;;;;6225197;23;20163;-80
2024/01/05 11:55:42;;;;;;;7.25;5.93;;;1.00;1.00;;;;;;6240310;23;20206;-80
2024/01/05 11:58:10;;;;;;;6.88;6.13;;;0.90;1.00;;;;;;6231927;23;20171;-82
2024/01/05 12:00:39;;;;;;;14.30;7.07;;;0.90;1.00;;;;;;6224180;23;20192;-82
2024/01/05 12:03:06;;;;;;;8.40;7.45;;;0.90;1.00;;;;;;6225855;23;20182;-82
2024/01/05 12:05:34;;;;;;;7.93;5.88;;;1.10;1.00;;;;;;6225235;23;20282;-82
2024/01/05 12:08:01;;;;;;;11.52;7.15;;;1.10;1.00;;;;;;6225962;23;20198;-82
2024/01/05 12:10:29;;;;;;;10.57;7.70;;;1.10;1.00;;;;;;6224741;23;20254;-82
2024/01/05 12:12:55;;;;;;;5.85;5.03;;;1.10;99.90;;;;;;6237201;23;20167;-82
2024/01/05 12:15:23;;;;;;;7.13;6.18;;;1.00;99.90;;;;;;6243935;22;20199;-81
2024/01/05 12:17:51;;;;;;;13.45;6.57;;;1.00;99.90;;;;;;6232081;23;20206;-82
2024/01/05 12:20:19;;;;;;;6.53;5.60;;;1.20;1.00;;;;;;6237828;22;20509;-82
2024/01/05 12:22:52;;;;;;;6.88;5.65;;;1.10;99.90;;;;;;6232108;23;20179;-84
2024/01/05 12:25:19;;;;;;;5.70;5.20;;;1.10;99.90;;;;;;6232651;23;20533;-83
2024/01/05 12:27:46;;;;;;;6.88;6.28;;;1.10;99.90;;;;;;6236386;23;20179;-83
2024/01/05 12:30:14;;;;;;;6.85;5.68;;;1.10;99.90;;;;;;6240980;23;20163;-83
2024/01/05 12:32:43;;;;;;;6.03;5.10;;;1.00;99.90;;;;;;6242024;23;20186;-82
2024/01/05 12:35:11;;;;;;;6.47;5.78;;;1.00;99.90;;;;;;6235040;23;20171;-82
2024/01/05 12:37:37;;;;;;;7.25;6.00;;;1.00;99.90;;;;;;6228587;23;20179;-83
2024/01/05 12:40:12;;;;;;;6.18;5.30;;;1.00;99.90;;;;;;6227843;23;20186;-84
2024/01/05 12:42:39;;;;;;;8.15;5.50;;;1.10;99.90;;;;;;6243335;22;20143;-82
2024/01/05 12:45:08;;;;;;;6.30;5.68;;;1.20;99.90;;;;;;6236881;23;20195;-82
2024/01/05 12:47:35;;;;;;;5.88;5.28;;;1.10;99.90;;;;;;6226687;23;20175;-84
2024/01/05 12:50:03;;;;;;;7.65;6.85;;;1.20;99.90;;;;;;6223990;23;20278;-84
2024/01/05 12:52:34;;;;;;;6.75;5.60;;;1.10;99.90;;;;;;6224877;23;20657;-83
2024/01/05 12:55:01;;;;;;;10.98;7.03;;;1.10;99.90;;;;;;6224942;23;20484;-83
2024/01/05 12:57:30;;;;;;;6.55;5.93;;;1.10;99.90;;;;;;6224381;23;20218;-83
2024/01/05 13:00:03;;;;;;;7.03;5.85;;;1.10;99.90;;;;;;6226265;23;20182;-82
2024/01/05 13:02:30;;;;;;;8.63;6.05;;;1.10;99.90;;;;;;6225466;23;20168;-84
2024/01/05 13:04:57;;;;;;;12.90;7.95;;;1.10;99.90;;;;;;6224971;23;20191;-83
2024/01/05 13:07:23;;;;;;;6.00;5.50;;;1.10;99.90;;;;;;6225135;23;20285;-83
2024/01/05 13:09:50;;;;;;;6.53;5.93;;;1.10;99.90;;;;;;6234136;23;20179;-83
2024/01/05 13:12:17;;;;;;;6.70;5.43;;;1.10;99.90;;;;;;6236560;23;20190;-83
2024/01/05 13:14:45;;;;;;;6.28;5.40;;;1.10;99.90;;;;;;6242627;22;20179;-82
2024/01/05 13:17:12;;;;;;;6.20;5.63;;;1.10;99.90;;;;;;6243893;23;20239;-83
2024/01/05 13:19:40;;;;;;;7.13;6.10;;;1.10;99.90;;;;;;6243328;23;20186;-82
2024/01/05 13:22:09;;;;;;;6.18;5.55;;;1.20;1.00;;;;;;6243499;22;20151;-82
2024/01/05 13:24:36;;;;;;;6.95;5.72;;;1.30;1.00;;;;;;6243077;22;20190;-82
2024/01/05 13:27:05;;;;;;;8.63;6.50;;;1.10;99.90;;;;;;6243051;23;20187;-82
2024/01/05 13:29:32;;;;;;;6.13;5.10;;;1.10;99.90;;;;;;6241773;22;20239;-83
2024/01/05 13:32:00;;;;;;;10.90;8.80;;;1.20;99.90;;;;;;6240516;23;20258;-83
2024/01/05 13:34:27;;;;;;;8.93;6.60;;;1.10;99.90;;;;;;6237855;23;20210;-83
2024/01/05 13:36:53;;;;;;;8.05;6.20;;;1.10;99.90;;;;;;6230472;23;20195;-83
2024/01/05 13:39:20;;;;;;;8.07;7.25;;;1.10;1.00;;;;;;6229948;23;20186;-84
2024/01/05 13:41:47;;;;;;;8.13;7.40;;;1.20;1.00;;;;;;6229757;23;20181;-83
2024/01/05 13:44:14;;;;;;;6.85;6.15;;;1.10;1.00;;;;;;6229686;23;20225;-83
2024/01/05 13:46:41;;;;;;;7.20;6.15;;;1.10;1.00;;;;;;6230798;23;20547;-83
2024/01/05 13:49:09;;;;;;;8.25;7.45;;;1.20;1.00;;;;;;6237157;23;20186;-83
2024/01/05 13:51:36;;;;;;;9.02;7.05;;;1.20;1.00;;;;;;6229048;23;20230;-82
2024/01/05 13:54:03;;;;;;;7.65;6.75;;;1.20;1.00;;;;;;6227884;23;20175;-82
2024/01/05 13:56:31;;;;;;;7.43;6.63;;;1.20;1.00;;;;;;6226249;23;20206;-83
2024/01/05 13:58:59;;;;;;;8.50;6.82;;;1.10;1.00;;;;;;6225650;23;20179;-83
2024/01/05 14:01:25;;;;;;;7.68;6.82;;;1.00;1.00;;;;;;6200434;23;20691;-84
2024/01/05 14:03:52;;;;;;;10.85;7.40;;;1.00;1.00;;;;;;6227883;23;20261;-84
2024/01/05 14:06:21;;;;;;;8.63;7.82;;;1.10;1.00;;;;;;6226929;23;20244;-84
2024/01/05 14:08:48;;;;;;;9.70;7.32;;;1.20;1.00;;;;;;6201129;23;20175;-84
2024/01/05 14:11:16;;;;;;;10.20;7.80;;;1.10;1.00;;;;;;6227920;23;20178;-83
2024/01/05 14:13:43;;;;;;;7.90;7.15;;;1.10;1.00;;;;;;6226254;23;20179;-84
2024/01/05 14:16:10;;;;;;;8.73;7.78;;;1.10;1.00;;;;;;6226198;23;20218;-83
2024/01/05 14:18:38;;;;;;;10.52;8.00;;;1.10;1.00;;;;;;6226752;23;20210;-83
2024/01/05 14:21:05;;;;;;;7.85;6.50;;;1.10;1.00;;;;;;6225362;23;20174;-84
2024/01/05 14:23:33;;;;;;;10.60;8.15;;;1.10;1.00;;;;;;6223970;23;20178;-83
2024/01/05 14:26:00;;;;;;;8.30;7.50;;;1.20;1.00;;;;;;6225457;23;20210;-83
2024/01/05 14:28:27;;;;;;;9.23;8.13;;;1.10;1.00;;;;;;6224867;23;20233;-83
2024/01/05 14:30:54;;;;;;;9.68;8.25;;;1.20;1.00;;;;;;6225863;23;20198;-83
2024/01/05 14:33:21;;;;;;;9.75;7.18;;;1.20;1.00;;;;;;6227220;23;20231;-84
2024/01/05 14:35:48;;;;;;;8.93;8.02;;;1.20;1.00;;;;;;6228470;23;20195;-85
2024/01/05 14:38:15;;;;;;;10.13;8.23;;;1.30;1.00;;;;;;6228569;23;20186;-84
2024/01/05 14:40:44;;;;;;;12.85;7.95;;;1.20;1.00;;;;;;6230201;23;20210;-83
2024/01/05 14:43:11;;;;;;;7.90;7.10;;;1.20;1.00;;;;;;6231457;23;20262;-83
2024/01/05 14:45:39;;;;;;;9.80;7.93;;;1.20;1.00;;;;;;6231138;23;20206;-83
2024/01/05 14:48:06;;;;;;;10.68;8.43;;;1.20;1.00;;;;;;6239390;23;20206;-84
2024/01/05 14:50:33;;;;;;;9.65;8.00;;;1.20;1.00;;;;;;6232595;23;20179;-83
2024/01/05 14:52:59;;;;;;;13.48;10.38;;;1.30;1.00;;;;;;6235451;23;20179;-83
2024/01/05 14:55:26;;;;;;;14.30;10.10;;;1.20;1.00;;;;;;6239252;23;20191;-83
2024/01/05 14:57:54;;;;;;;10.43;8.40;;;1.30;1.00;;;;;;6241772;23;20406;-83
2024/01/05 15:00:21;;;;;;;11.77;9.45;;;1.30;1.00;;;;;;6239743;23;20185;-83
2024/01/05 15:02:48;;;;;;;12.07;8.82;;;1.30;1.00;;;;;;6236919;23;20231;-83